createdAt,value
2018-09-03T00:02:04.621Z,8.60
2018-09-03T00:04:35.387Z,8.10
2018-09-03T00:07:05.958Z,6.63
2018-09-03T00:09:41.709Z,6.87
2018-09-03T00:12:13.123Z,7.63
2018-09-03T00:14:43.676Z,7.87
2018-09-03T00:17:14.159Z,7.40
2018-09-03T00:19:44.489Z,7.50
2018-09-03T00:22:15.310Z,7.20
2018-09-03T00:24:45.852Z,6.40
2018-09-03T00:27:16.138Z,7.10
2018-09-03T00:29:46.702Z,7.30
2018-09-03T00:32:23.029Z,6.83
2018-09-03T00:34:58.158Z,8.27
2018-09-03T00:37:33.726Z,7.20
2018-09-03T00:40:09.346Z,8.40
2018-09-03T00:42:44.764Z,7.30
2018-09-03T00:45:20.220Z,8.33
2018-09-03T00:47:50.580Z,8.17
2018-09-03T00:50:20.873Z,8.90
2018-09-03T00:52:52.364Z,7.67
2018-09-03T00:55:22.676Z,8.07
2018-09-03T00:57:53.163Z,7.17
2018-09-03T01:00:23.689Z,7.70
2018-09-03T01:02:54.931Z,7.47
2018-09-03T01:05:25.833Z,8.30
2018-09-03T01:07:56.620Z,7.73
2018-09-03T01:10:26.963Z,7.60
2018-09-03T01:12:58.440Z,7.53
2018-09-03T01:15:31.292Z,8.20
2018-09-03T01:18:02.930Z,8.63
2018-09-03T01:20:33.600Z,7.93
2018-09-03T01:23:04.649Z,7.67
2018-09-03T01:25:34.948Z,8.40
2018-09-03T01:28:05.337Z,7.90
2018-09-03T01:30:35.893Z,8.77
2018-09-03T01:33:07.037Z,8.37
2018-09-03T01:35:37.481Z,8.73
2018-09-03T01:38:08.106Z,7.87
2018-09-03T01:40:38.688Z,7.63
2018-09-03T01:43:10.479Z,6.70
2018-09-03T01:45:40.784Z,7.40
2018-09-03T01:48:11.663Z,8.57
2018-09-03T01:50:42.354Z,9.10
2018-09-03T01:53:13.290Z,8.13
2018-09-03T01:55:43.493Z,7.77
2018-09-03T01:58:14.162Z,7.40
2018-09-03T02:00:44.549Z,8.00
2018-09-03T02:03:15.755Z,7.63
2018-09-03T02:05:46.504Z,6.53
2018-09-03T02:08:17.095Z,7.43
2018-09-03T02:10:47.355Z,6.43
2018-09-03T02:13:18.146Z,7.23
2018-09-03T02:15:48.725Z,8.40
2018-09-03T02:18:18.806Z,8.03
2018-09-03T02:20:49.196Z,6.80
2018-09-03T02:23:19.748Z,8.83
2018-09-03T02:25:50.160Z,8.77
2018-09-03T02:28:20.511Z,8.20
2018-09-03T02:30:51.047Z,7.63
2018-09-03T02:33:21.881Z,6.77
2018-09-03T02:35:52.394Z,7.47
2018-09-03T02:38:22.731Z,7.83
2018-09-03T02:40:53.152Z,8.17
2018-09-03T02:43:23.692Z,7.83
2018-09-03T02:45:54.169Z,9.00
2018-09-03T02:48:24.315Z,7.90
2018-09-03T02:50:54.606Z,8.27
2018-09-03T02:53:25.046Z,8.00
2018-09-03T02:55:55.594Z,8.83
2018-09-03T02:58:25.831Z,8.30
2018-09-03T03:00:56.265Z,8.60
2018-09-03T03:03:27.485Z,9.83
2018-09-03T03:05:57.782Z,8.80
2018-09-03T03:08:28.351Z,8.77
2018-09-03T03:10:58.885Z,8.60
2018-09-03T03:13:29.747Z,8.80
2018-09-03T03:15:59.948Z,9.03
2018-09-03T03:18:30.226Z,8.03
2018-09-03T03:21:00.731Z,8.80
2018-09-03T03:23:31.904Z,6.90
2018-09-03T03:26:02.463Z,8.77
2018-09-03T03:28:33.073Z,9.63
2018-09-03T03:31:03.610Z,9.63
2018-09-03T03:33:34.468Z,8.10
2018-09-03T03:36:05.386Z,8.17
2018-09-03T03:38:35.503Z,9.20
2018-09-03T03:41:06.044Z,8.50
2018-09-03T03:43:37.439Z,8.67
2018-09-03T03:46:08.091Z,9.10
2018-09-03T03:48:38.536Z,8.00
2018-09-03T03:51:09.048Z,8.63
2018-09-03T03:53:40.266Z,8.00
2018-09-03T03:56:11.136Z,7.33
2018-09-03T03:58:41.767Z,8.20
2018-09-03T04:01:12.169Z,7.90
2018-09-03T04:03:43.062Z,7.53
2018-09-03T04:06:14.069Z,14.20
2018-09-03T04:08:44.465Z,9.70
2018-09-03T04:11:14.893Z,9.80
2018-09-03T04:13:45.994Z,8.57
2018-09-03T04:16:16.506Z,8.70
2018-09-03T04:18:47.144Z,9.80
2018-09-03T04:21:17.572Z,9.50
2018-09-03T04:23:47.830Z,9.67
2018-09-03T04:26:18.363Z,9.23
2018-09-03T04:28:48.732Z,10.23
2018-09-03T04:31:19.536Z,10.03
2018-09-03T04:33:51.012Z,9.20
2018-09-03T04:36:21.637Z,8.63
2018-09-03T04:38:52.351Z,7.80
2018-09-03T04:41:23.007Z,9.70
2018-09-03T04:43:54.350Z,9.80
2018-09-03T04:46:24.676Z,9.23
2018-09-03T04:48:55.286Z,9.60
2018-09-03T04:51:25.779Z,9.20
2018-09-03T04:53:57.485Z,9.00
2018-09-03T04:56:28.523Z,10.87
2018-09-03T04:58:59.247Z,8.80
2018-09-03T05:01:29.910Z,8.77
2018-09-03T05:04:00.181Z,8.80
2018-09-03T05:06:30.983Z,10.10
2018-09-03T05:09:01.107Z,8.37
2018-09-03T05:11:31.359Z,12.10
2018-09-03T05:14:02.142Z,12.57
2018-09-03T05:16:32.430Z,12.60
2018-09-03T05:19:03.119Z,11.70
2018-09-03T05:21:33.791Z,11.70
2018-09-03T05:24:05.003Z,11.40
2018-09-03T05:26:35.508Z,10.67
2018-09-03T05:29:05.847Z,12.00
2018-09-03T05:31:36.312Z,11.23
2018-09-03T05:34:06.866Z,10.07
2018-09-03T05:36:37.333Z,10.20
2018-09-03T05:39:10.319Z,12.80
2018-09-03T05:41:40.474Z,10.47
2018-09-03T05:44:11.835Z,12.53
2018-09-03T05:46:42.456Z,11.83
2018-09-03T05:49:13.186Z,11.83
2018-09-03T05:51:43.640Z,10.67
2018-09-03T05:54:14.302Z,10.90
2018-09-03T05:56:45.096Z,11.10
2018-09-03T05:59:15.488Z,10.60
2018-09-03T06:01:46.122Z,12.80
2018-09-03T06:04:17.088Z,8.73
2018-09-03T06:06:47.809Z,9.50
2018-09-03T06:09:18.455Z,10.47
2018-09-03T06:11:48.663Z,10.47
2018-09-03T06:14:19.629Z,10.70
2018-09-03T06:16:50.377Z,11.10
2018-09-03T06:19:20.851Z,10.93
2018-09-03T06:21:51.400Z,10.83
2018-09-03T06:24:22.319Z,10.27
2018-09-03T06:26:52.508Z,9.00
2018-09-03T06:29:22.882Z,11.63
2018-09-03T06:31:53.241Z,10.57
2018-09-03T06:34:23.698Z,10.63
2018-09-03T06:36:53.461Z,12.90
2018-09-03T06:39:23.380Z,11.20
2018-09-03T06:41:53.139Z,10.60
2018-09-03T06:44:22.977Z,11.33
2018-09-03T06:46:52.807Z,9.40
2018-09-03T06:49:22.717Z,9.43
2018-09-03T06:51:52.546Z,11.13
2018-09-03T06:54:22.454Z,12.20
2018-09-03T06:56:52.292Z,11.40
2018-09-03T06:59:22.346Z,12.67
2018-09-03T07:01:52.080Z,11.10
2018-09-03T07:04:21.705Z,9.53
2018-09-03T07:06:52.697Z,11.00
2018-09-03T07:09:23.027Z,10.73
2018-09-03T07:11:53.757Z,9.60
2018-09-03T07:14:24.551Z,10.30
2018-09-03T07:16:54.791Z,9.87
2018-09-03T07:19:24.642Z,10.57
2018-09-03T07:21:54.591Z,10.10
2018-09-03T07:24:25.296Z,9.80
2018-09-03T07:26:55.158Z,9.30
2018-09-03T07:29:25.005Z,9.80
2018-09-03T07:31:55.606Z,9.63
2018-09-03T07:34:26.812Z,9.60
2018-09-03T07:36:57.254Z,9.20
2018-09-03T07:39:27.830Z,9.40
2018-09-03T07:41:58.400Z,8.30
2018-09-03T07:44:28.918Z,11.07
2018-09-03T07:46:59.388Z,10.97
2018-09-03T07:49:30.119Z,10.80
2018-09-03T08:03:16.534Z,9.53
2018-09-03T08:05:47.340Z,9.27
2018-09-03T08:08:17.883Z,9.23
2018-09-03T08:10:48.502Z,7.87
2018-09-03T08:13:24.360Z,8.07
2018-09-03T08:15:54.551Z,8.23
2018-09-03T08:18:24.876Z,7.73
2018-09-03T08:20:55.723Z,8.90
2018-09-03T08:23:26.062Z,7.37
2018-09-03T08:25:56.548Z,7.70
2018-09-03T08:28:27.255Z,9.13
2018-09-03T08:30:58.326Z,7.47
2018-09-03T08:33:28.945Z,10.60
2018-09-03T08:35:59.518Z,10.30
2018-09-03T08:38:29.959Z,8.00
2018-09-03T08:41:01.616Z,8.73
2018-09-03T08:43:32.139Z,7.90
2018-09-03T08:46:02.673Z,9.13
2018-09-03T08:48:33.515Z,7.30
2018-09-03T08:51:04.806Z,7.50
2018-09-03T08:53:35.453Z,7.57
2018-09-03T08:56:06.010Z,7.90
2018-09-03T08:58:36.860Z,8.07
2018-09-03T09:01:07.794Z,6.63
2018-09-03T09:03:41.519Z,7.10
2018-09-03T09:06:12.399Z,6.87
2018-09-03T09:08:42.594Z,6.40
2018-09-03T09:11:13.839Z,6.27
2018-09-03T09:13:44.383Z,7.27
2018-09-03T09:16:15.130Z,5.43
2018-09-03T09:18:45.649Z,4.93
2018-09-03T09:21:16.599Z,5.67
2018-09-03T09:23:47.204Z,6.07
2018-09-03T09:26:17.766Z,7.17
2018-09-03T09:28:48.340Z,6.17
2018-09-03T09:31:19.936Z,6.40
2018-09-03T09:33:50.649Z,5.40
2018-09-03T09:36:20.971Z,5.70
2018-09-03T09:38:51.462Z,6.60
2018-09-03T09:41:22.950Z,6.13
2018-09-03T09:43:53.600Z,7.00
2018-09-03T09:46:23.829Z,7.90
2018-09-03T09:48:54.451Z,4.90
2018-09-03T09:51:28.806Z,4.43
2018-09-03T09:53:59.454Z,5.50
2018-09-03T09:56:29.947Z,5.27
2018-09-03T09:59:00.557Z,6.20
2018-09-03T10:01:37.536Z,4.87
2018-09-03T10:04:08.667Z,7.13
2018-09-03T10:06:39.082Z,5.23
2018-09-03T10:09:09.851Z,5.57
2018-09-03T10:11:40.742Z,5.83
2018-09-03T10:14:11.493Z,6.00
2018-09-03T10:16:42.240Z,6.10
2018-09-03T10:19:12.844Z,5.80
2018-09-03T10:21:44.109Z,6.50
2018-09-03T10:24:14.419Z,5.90
2018-09-03T10:26:44.878Z,5.90
2018-09-03T10:29:15.568Z,7.27
2018-09-03T10:31:46.102Z,6.70
2018-09-03T10:34:16.652Z,6.27
2018-09-03T10:36:47.154Z,6.53
2018-09-03T10:39:17.690Z,5.83
2018-09-03T10:41:48.415Z,6.70
2018-09-03T10:44:18.911Z,6.80
2018-09-03T10:46:50.591Z,7.40
2018-09-03T10:49:21.177Z,6.23
2018-09-03T10:51:52.790Z,8.00
2018-09-03T10:54:23.327Z,6.70
2018-09-03T10:56:53.847Z,6.33
2018-09-03T10:59:24.083Z,6.13
2018-09-03T11:01:55.505Z,6.43
2018-09-03T11:04:26.321Z,6.50
2018-09-03T11:06:56.979Z,6.93
2018-09-03T11:09:27.589Z,6.87
2018-09-03T11:11:59.373Z,6.83
2018-09-03T11:14:29.875Z,7.10
2018-09-03T11:17:00.423Z,5.83
2018-09-03T11:19:33.399Z,6.47
2018-09-03T11:22:05.064Z,7.27
2018-09-03T11:24:35.579Z,6.63
2018-09-03T11:27:06.367Z,6.20
2018-09-03T11:29:36.940Z,6.60
2018-09-03T11:32:08.853Z,6.30
2018-09-03T11:34:39.872Z,6.13
2018-09-03T11:37:10.567Z,5.30
2018-09-03T11:39:41.231Z,7.93
2018-09-03T11:42:12.962Z,7.17
2018-09-03T11:44:43.647Z,8.50
2018-09-03T11:47:14.331Z,6.03
2018-09-03T11:49:45.095Z,7.13
2018-09-03T11:52:16.355Z,7.80
2018-09-03T11:54:46.875Z,7.40
2018-09-03T11:57:17.285Z,7.90
2018-09-03T11:59:47.598Z,11.30
2018-09-03T12:02:18.530Z,9.00
2018-09-03T12:04:49.117Z,8.00
2018-09-03T12:07:19.410Z,8.60
2018-09-03T12:09:49.873Z,9.03
2018-09-03T12:12:20.363Z,7.57
2018-09-03T12:14:54.244Z,7.10
2018-09-03T12:17:24.857Z,7.30
2018-09-03T12:19:55.443Z,8.50
2018-09-03T12:22:26.126Z,8.50
2018-09-03T12:24:56.688Z,7.50
2018-09-03T12:27:27.373Z,7.10
2018-09-03T12:29:58.341Z,7.83
2018-09-03T12:32:29.777Z,7.50
2018-09-03T12:35:00.098Z,7.10
2018-09-03T12:37:30.597Z,7.20
2018-09-03T12:40:00.837Z,8.17
2018-09-03T12:42:31.435Z,6.50
2018-09-03T12:45:01.950Z,8.20
2018-09-03T12:47:32.403Z,7.63
2018-09-03T12:50:03.033Z,7.60
2018-09-03T12:52:34.550Z,7.53
2018-09-03T12:55:05.271Z,7.27
2018-09-03T12:57:36.094Z,7.30
2018-09-03T13:00:06.794Z,6.47
2018-09-03T13:02:39.414Z,8.50
2018-09-03T13:05:08.193Z,7.20
2018-09-03T13:07:38.639Z,7.63
2018-09-03T13:10:09.046Z,7.83
2018-09-03T13:12:40.967Z,7.07
2018-09-03T13:15:11.942Z,8.73
2018-09-03T13:17:42.452Z,8.10
2018-09-03T13:20:13.371Z,6.97
2018-09-03T13:22:44.910Z,7.17
2018-09-03T13:25:15.402Z,6.37
2018-09-03T13:27:45.820Z,6.87
2018-09-03T13:30:16.347Z,6.33
2018-09-03T13:32:47.539Z,6.00
2018-09-03T13:35:18.030Z,7.40
2018-09-03T13:37:48.255Z,6.90
2018-09-03T13:40:18.902Z,7.80
2018-09-03T13:42:50.721Z,7.70
2018-09-03T13:45:21.243Z,6.77
2018-09-03T13:47:51.761Z,6.70
2018-09-03T13:50:22.534Z,6.40
2018-09-03T13:52:53.251Z,6.60
2018-09-03T13:55:23.680Z,6.57
2018-09-03T13:57:54.296Z,6.90
2018-09-03T14:00:25.045Z,7.57
2018-09-03T14:02:55.449Z,6.10
2018-09-03T14:05:26.261Z,7.03
2018-09-03T14:07:56.670Z,7.03
2018-09-03T14:10:27.365Z,7.43
2018-09-03T14:12:58.376Z,7.00
2018-09-03T14:15:29.142Z,6.37
2018-09-03T14:17:59.579Z,7.10
2018-09-03T14:20:30.239Z,7.70
2018-09-03T14:23:01.763Z,6.60
2018-09-03T14:25:32.337Z,6.70
2018-09-03T14:28:02.773Z,7.70
2018-09-03T14:30:33.439Z,7.90
2018-09-03T14:33:05.013Z,8.13
2018-09-03T14:35:35.718Z,7.80
2018-09-03T14:38:06.330Z,8.87
2018-09-03T14:40:36.851Z,7.70
2018-09-03T14:43:07.650Z,8.70
2018-09-03T14:45:37.942Z,7.60
2018-09-03T14:48:08.714Z,7.90
2018-09-03T14:50:39.185Z,8.80
2018-09-03T14:53:10.226Z,8.03
2018-09-03T14:55:40.384Z,8.30
2018-09-03T14:58:10.854Z,8.13
2018-09-03T15:00:41.289Z,7.90
2018-09-03T15:03:11.854Z,7.70
2018-09-03T15:05:42.850Z,8.17
2018-09-03T15:08:13.585Z,9.30
2018-09-03T15:10:44.018Z,7.77
2018-09-03T15:13:14.643Z,9.40
2018-09-03T15:15:44.927Z,9.97
2018-09-03T15:18:15.362Z,8.80
2018-09-03T15:20:45.907Z,8.70
2018-09-03T15:23:16.315Z,8.60
2018-09-03T15:25:46.017Z,8.83
2018-09-03T15:28:15.970Z,9.17
2018-09-03T15:30:45.882Z,9.00
2018-09-03T15:33:15.716Z,8.10
2018-09-03T15:35:45.626Z,8.50
2018-09-03T15:38:15.396Z,8.80
2018-09-03T15:40:45.036Z,8.97
2018-09-03T15:43:14.817Z,9.40
2018-09-03T15:45:44.590Z,11.50
2018-09-03T15:48:14.410Z,9.90
2018-09-03T15:50:44.444Z,12.00
2018-09-03T15:53:14.329Z,10.40
2018-09-03T15:55:44.213Z,10.03
2018-09-03T15:58:14.103Z,7.80
2018-09-03T16:00:43.838Z,8.40
2018-09-03T16:03:13.622Z,9.70
2018-09-03T16:05:43.519Z,9.13
2018-09-03T16:08:13.625Z,8.30
2018-09-03T16:10:43.513Z,9.80
2018-09-03T16:13:13.452Z,7.80
2018-09-03T16:15:43.368Z,11.13
2018-09-03T16:18:13.491Z,9.10
2018-09-03T16:20:43.411Z,8.37
2018-09-03T16:23:13.380Z,9.33
2018-09-03T16:25:43.265Z,11.43
2018-09-03T16:28:13.091Z,9.73
2018-09-03T16:30:42.858Z,8.70
2018-09-03T16:33:12.680Z,8.80
2018-09-03T16:35:42.649Z,8.17
2018-09-03T16:38:12.528Z,8.77
2018-09-03T16:40:42.379Z,10.57
2018-09-03T16:43:12.253Z,9.93
2018-09-03T16:45:42.153Z,9.07
2018-09-03T16:48:12.130Z,8.73
2018-09-03T16:50:41.907Z,9.50
2018-09-03T16:53:11.743Z,9.10
2018-09-03T16:55:41.522Z,8.87
2018-09-03T16:58:11.420Z,9.93
2018-09-03T17:00:41.309Z,9.47
2018-09-03T17:03:11.172Z,9.47
2018-09-03T17:05:40.956Z,7.80
2018-09-03T17:08:11.034Z,9.43
2018-09-03T17:10:41.259Z,8.93
2018-09-03T17:13:11.084Z,9.23
2018-09-03T17:15:41.155Z,9.70
2018-09-03T17:18:11.085Z,8.97
2018-09-03T17:20:40.953Z,8.97
2018-09-03T17:23:10.652Z,9.47
2018-09-03T17:25:40.403Z,8.83
2018-09-03T17:28:10.154Z,9.30
2018-09-03T17:30:40.051Z,10.20
2018-09-03T17:33:09.873Z,9.13
2018-09-03T17:35:39.791Z,8.93
2018-09-03T17:38:09.644Z,10.43
2018-09-03T17:40:39.393Z,8.50
2018-09-03T17:43:09.223Z,10.67
2018-09-03T17:45:39.018Z,9.57
2018-09-03T17:48:08.966Z,8.47
2018-09-03T17:50:38.877Z,8.90
2018-09-03T17:53:08.734Z,10.30
2018-09-03T17:55:38.507Z,10.53
2018-09-03T17:58:08.354Z,10.23
2018-09-03T18:00:38.146Z,10.10
2018-09-03T18:03:08.089Z,10.83
2018-09-03T18:05:38.930Z,9.17
2018-09-03T18:08:09.255Z,10.30
2018-09-03T18:10:39.126Z,11.20
2018-09-03T18:13:09.851Z,12.23
2018-09-03T18:15:39.748Z,11.17
2018-09-03T18:18:09.449Z,11.83
2018-09-03T18:20:39.191Z,12.77
2018-09-03T18:23:08.950Z,11.90
2018-09-03T18:25:38.798Z,13.03
2018-09-03T18:28:08.556Z,11.60
2018-09-03T18:30:38.349Z,11.00
2018-09-03T18:33:08.251Z,12.40
2018-09-03T18:35:38.190Z,11.60
2018-09-03T18:38:08.015Z,11.37
2018-09-03T18:40:37.738Z,11.50
2018-09-03T18:43:07.565Z,12.00
2018-09-03T18:45:37.346Z,11.93
2018-09-03T18:48:07.455Z,11.77
2018-09-03T18:50:37.357Z,10.73
2018-09-03T18:53:07.403Z,11.07
2018-09-03T18:55:37.296Z,10.57
2018-09-03T18:58:07.105Z,11.27
2018-09-03T19:00:36.926Z,10.20
2018-09-03T19:03:06.644Z,11.50
2018-09-03T19:05:36.695Z,10.90
2018-09-03T19:08:06.978Z,10.43
2018-09-03T19:10:36.798Z,10.47
2018-09-03T19:13:06.601Z,12.40
2018-09-03T19:15:36.569Z,10.83
2018-09-03T19:18:06.322Z,9.00
2018-09-03T19:20:36.223Z,10.10
2018-09-03T19:23:06.036Z,9.67
2018-09-03T19:25:35.829Z,9.53
2018-09-03T19:28:05.875Z,9.90
2018-09-03T19:30:35.675Z,10.30
2018-09-03T19:33:05.624Z,10.20
2018-09-03T19:35:35.336Z,9.60
2018-09-03T19:38:05.276Z,8.93
2018-09-03T19:40:35.437Z,11.10
2018-09-03T19:43:05.433Z,8.63
2018-09-03T19:45:35.184Z,10.30
2018-09-03T19:48:05.106Z,9.70
2018-09-03T19:50:34.956Z,10.13
2018-09-03T19:53:04.772Z,9.63
2018-09-03T19:55:34.530Z,10.17
2018-09-03T19:58:04.354Z,9.03
2018-09-03T20:00:34.244Z,9.47
2018-09-03T20:03:04.082Z,9.03
2018-09-03T20:05:34.049Z,9.13
2018-09-03T20:08:03.814Z,11.00
2018-09-03T20:10:33.785Z,9.10
2018-09-03T20:13:03.605Z,9.67
2018-09-03T20:15:33.566Z,8.57
2018-09-03T20:18:03.528Z,9.50
2018-09-03T20:20:33.402Z,9.10
2018-09-03T20:23:03.162Z,9.60
2018-09-03T20:25:33.106Z,10.30
2018-09-03T20:28:02.883Z,8.90
2018-09-03T20:30:32.772Z,8.70
2018-09-03T20:33:02.601Z,8.37
2018-09-03T20:35:32.427Z,9.87
2018-09-03T20:38:02.207Z,8.50
2018-09-03T20:40:32.034Z,9.27
2018-09-03T20:43:01.958Z,8.47
2018-09-03T20:45:31.801Z,9.30
2018-09-03T20:48:01.746Z,9.10
2018-09-03T20:50:31.525Z,9.33
2018-09-03T20:53:01.260Z,8.93
2018-09-03T20:55:31.305Z,8.00
2018-09-03T20:58:01.156Z,9.30
2018-09-03T21:00:30.977Z,9.40
2018-09-03T21:03:00.831Z,8.70
2018-09-03T21:05:30.661Z,8.97
2018-09-03T21:08:00.411Z,8.97
2018-09-03T21:10:30.175Z,9.40
2018-09-03T21:13:00.146Z,9.40
2018-09-03T21:15:29.903Z,10.17
2018-09-03T21:17:59.711Z,9.70
2018-09-03T21:20:29.888Z,9.73
2018-09-03T21:22:59.611Z,9.93
2018-09-03T21:25:29.300Z,8.60
2018-09-03T21:27:59.149Z,7.77
2018-09-03T21:30:28.774Z,9.80
2018-09-03T21:32:58.509Z,9.20
2018-09-03T21:35:28.349Z,9.60
2018-09-03T21:37:58.380Z,8.73
2018-09-03T21:40:28.126Z,9.50
2018-09-03T21:42:57.880Z,8.83
2018-09-03T21:45:27.655Z,7.73
2018-09-03T21:47:57.402Z,8.00
2018-09-03T21:50:27.156Z,7.80
2018-09-03T21:52:56.913Z,8.83
2018-09-03T21:55:26.839Z,8.20
2018-09-03T21:57:56.728Z,8.77
2018-09-03T22:00:26.602Z,8.77
2018-09-03T22:02:56.299Z,8.10
2018-09-03T22:05:26.007Z,8.87
2018-09-03T22:07:55.683Z,9.30
2018-09-03T22:10:25.580Z,11.67
2018-09-03T22:12:55.467Z,9.17
2018-09-03T22:15:25.298Z,9.03
2018-09-03T22:17:55.196Z,8.97
2018-09-03T22:20:24.800Z,7.53
2018-09-03T22:22:54.703Z,8.30
2018-09-03T22:25:24.666Z,8.53
2018-09-03T22:27:54.493Z,8.30
2018-09-03T22:30:24.425Z,10.57
2018-09-03T22:32:54.313Z,7.90
2018-09-03T22:35:24.101Z,9.33
2018-09-03T22:37:53.992Z,9.80
2018-09-03T22:40:24.007Z,8.93
2018-09-03T22:42:53.734Z,8.30
2018-09-03T22:45:23.419Z,8.97
2018-09-03T22:47:53.183Z,8.60
2018-09-03T22:50:23.022Z,8.13
2018-09-03T22:52:52.902Z,8.13
2018-09-03T22:55:22.802Z,8.73
2018-09-03T22:57:52.552Z,7.80
2018-09-03T23:00:22.303Z,7.63
2018-09-03T23:02:51.991Z,8.70
2018-09-03T23:05:21.780Z,8.33
2018-09-03T23:07:51.587Z,9.17
2018-09-03T23:10:21.246Z,7.80
2018-09-03T23:12:51.150Z,8.20
2018-09-03T23:15:21.002Z,8.80
2018-09-03T23:17:50.711Z,8.90
2018-09-03T23:20:20.563Z,9.83
2018-09-03T23:22:50.431Z,8.03
2018-09-03T23:25:20.562Z,9.00
2018-09-03T23:27:50.340Z,8.70
2018-09-03T23:30:20.421Z,8.10
2018-09-03T23:32:50.316Z,8.50
2018-09-03T23:35:20.138Z,6.80
2018-09-03T23:37:49.912Z,8.13
2018-09-03T23:40:19.632Z,8.87
2018-09-03T23:42:49.455Z,8.10
2018-09-03T23:45:19.167Z,10.47
2018-09-03T23:47:49.317Z,7.63
2018-09-03T23:50:19.280Z,7.73
2018-09-03T23:52:49.118Z,9.10
2018-09-03T23:55:18.812Z,8.73
2018-09-03T23:57:48.930Z,8.00
